sensor_id;sensor_type;location;lat;lon;timestamp;temperature;humidity
1075;DHT22;526;51.392;12.448;2023-04-16T00:00:15;9.80;97.30
1075;DHT22;526;51.392;12.448;2023-04-16T00:02:41;9.80;97.30
1075;DHT22;526;51.392;12.448;2023-04-16T00:05:06;9.80;97.30
1075;DHT22;526;51.392;12.448;2023-04-16T00:07:32;9.80;97.30
1075;DHT22;526;51.392;12.448;2023-04-16T00:09:58;9.80;97.30
1075;DHT22;526;51.392;12.448;2023-04-16T00:12:23;9.80;97.30
1075;DHT22;526;51.392;12.448;2023-04-16T00:14:49;9.80;97.30
1075;DHT22;526;51.392;12.448;2023-04-16T00:17:15;9.80;97.30
1075;DHT22;526;51.392;12.448;2023-04-16T00:19:40;9.80;97.30
1075;DHT22;526;51.392;12.448;2023-04-16T00:22:05;9.80;97.30
1075;DHT22;526;51.392;12.448;2023-04-16T00:24:31;9.70;97.30
1075;DHT22;526;51.392;12.448;2023-04-16T00:26:56;9.70;97.30
1075;DHT22;526;51.392;12.448;2023-04-16T00:29:22;9.70;97.30
1075;DHT22;526;51.392;12.448;2023-04-16T00:31:48;9.70;97.30
1075;DHT22;526;51.392;12.448;2023-04-16T00:34:13;9.70;97.30
1075;DHT22;526;51.392;12.448;2023-04-16T00:36:39;9.70;97.30
1075;DHT22;526;51.392;12.448;2023-04-16T00:39:04;9.70;97.30
1075;DHT22;526;51.392;12.448;2023-04-16T00:41:30;9.70;97.30
1075;DHT22;526;51.392;12.448;2023-04-16T00:43:58;9.70;97.30
1075;DHT22;526;51.392;12.448;2023-04-16T00:46:23;9.70;97.30
1075;DHT22;526;51.392;12.448;2023-04-16T00:48:50;9.70;97.30
1075;DHT22;526;51.392;12.448;2023-04-16T00:51:18;9.60;97.30
1075;DHT22;526;51.392;12.448;2023-04-16T00:53:47;9.60;97.30
1075;DHT22;526;51.392;12.448;2023-04-16T00:56:13;9.60;97.30
1075;DHT22;526;51.392;12.448;2023-04-16T00:58:39;9.70;97.30
1075;DHT22;526;51.392;12.448;2023-04-16T01:01:05;9.60;97.30
1075;DHT22;526;51.392;12.448;2023-04-16T01:03:46;9.60;97.30
1075;DHT22;526;51.392;12.448;2023-04-16T01:06:13;9.60;97.30
1075;DHT22;526;51.392;12.448;2023-04-16T01:08:42;9.60;97.30
1075;DHT22;526;51.392;12.448;2023-04-16T01:11:31;9.60;97.30
1075;DHT22;526;51.392;12.448;2023-04-16T01:14:04;9.60;97.30
1075;DHT22;526;51.392;12.448;2023-04-16T01:16:33;9.60;97.30
1075;DHT22;526;51.392;12.448;2023-04-16T01:19:04;9.60;97.30
1075;DHT22;526;51.392;12.448;2023-04-16T01:21:37;9.60;97.30
1075;DHT22;526;51.392;12.448;2023-04-16T01:24:03;9.60;97.30
1075;DHT22;526;51.392;12.448;2023-04-16T01:26:30;9.60;97.30
1075;DHT22;526;51.392;12.448;2023-04-16T01:28:55;9.60;97.30
1075;DHT22;526;51.392;12.448;2023-04-16T01:31:54;9.50;97.30
1075;DHT22;526;51.392;12.448;2023-04-16T01:34:22;9.50;97.30
1075;DHT22;526;51.392;12.448;2023-04-16T01:36:51;9.50;97.30
1075;DHT22;526;51.392;12.448;2023-04-16T01:39:22;9.50;97.30
1075;DHT22;526;51.392;12.448;2023-04-16T01:41:54;9.50;97.30
1075;DHT22;526;51.392;12.448;2023-04-16T01:44:22;9.50;97.30
1075;DHT22;526;51.392;12.448;2023-04-16T01:46:55;9.50;97.30
1075;DHT22;526;51.392;12.448;2023-04-16T01:49:34;9.50;97.30
1075;DHT22;526;51.392;12.448;2023-04-16T01:52:02;9.60;97.30
1075;DHT22;526;51.392;12.448;2023-04-16T01:54:33;9.60;97.30
1075;DHT22;526;51.392;12.448;2023-04-16T01:57:02;9.60;97.30
1075;DHT22;526;51.392;12.448;2023-04-16T01:59:34;9.60;97.30
1075;DHT22;526;51.392;12.448;2023-04-16T02:02:06;9.60;97.30
1075;DHT22;526;51.392;12.448;2023-04-16T02:04:44;9.60;97.30
1075;DHT22;526;51.392;12.448;2023-04-16T02:07:12;9.60;97.30
1075;DHT22;526;51.392;12.448;2023-04-16T02:10:03;9.60;97.30
1075;DHT22;526;51.392;12.448;2023-04-16T02:12:32;9.60;97.30
1075;DHT22;526;51.392;12.448;2023-04-16T02:15:03;9.60;97.30
1075;DHT22;526;51.392;12.448;2023-04-16T02:17:31;9.60;97.30
1075;DHT22;526;51.392;12.448;2023-04-16T02:19:56;9.60;97.30
1075;DHT22;526;51.392;12.448;2023-04-16T02:22:22;9.60;97.30
1075;DHT22;526;51.392;12.448;2023-04-16T02:27:43;9.60;97.30
1075;DHT22;526;51.392;12.448;2023-04-16T02:30:11;9.60;97.30
1075;DHT22;526;51.392;12.448;2023-04-16T02:32:42;9.60;97.30
1075;DHT22;526;51.392;12.448;2023-04-16T02:35:13;9.60;97.30
1075;DHT22;526;51.392;12.448;2023-04-16T02:37:42;9.60;97.30
1075;DHT22;526;51.392;12.448;2023-04-16T02:40:13;9.60;97.30
1075;DHT22;526;51.392;12.448;2023-04-16T02:42:42;9.60;97.30
1075;DHT22;526;51.392;12.448;2023-04-16T02:45:13;9.60;97.30
1075;DHT22;526;51.392;12.448;2023-04-16T02:47:38;9.60;97.30
1075;DHT22;526;51.392;12.448;2023-04-16T02:50:04;9.60;97.30
1075;DHT22;526;51.392;12.448;2023-04-16T02:52:30;9.50;97.30
1075;DHT22;526;51.392;12.448;2023-04-16T02:54:57;9.50;97.30
1075;DHT22;526;51.392;12.448;2023-04-16T02:57:22;9.50;97.30
1075;DHT22;526;51.392;12.448;2023-04-16T02:59:47;9.50;97.30
1075;DHT22;526;51.392;12.448;2023-04-16T03:02:13;9.50;97.30
1075;DHT22;526;51.392;12.448;2023-04-16T03:04:42;9.50;97.30
1075;DHT22;526;51.392;12.448;2023-04-16T03:07:11;9.50;97.30
1075;DHT22;526;51.392;12.448;2023-04-16T03:10:00;9.50;97.30
1075;DHT22;526;51.392;12.448;2023-04-16T03:12:33;9.50;97.30
1075;DHT22;526;51.392;12.448;2023-04-16T03:15:01;9.40;97.30
1075;DHT22;526;51.392;12.448;2023-04-16T03:17:26;9.50;97.30
1075;DHT22;526;51.392;12.448;2023-04-16T03:19:52;9.50;97.30
1075;DHT22;526;51.392;12.448;2023-04-16T03:22:17;9.50;97.30
1075;DHT22;526;51.392;12.448;2023-04-16T03:24:43;9.50;97.30
1075;DHT22;526;51.392;12.448;2023-04-16T03:27:08;9.40;97.30
1075;DHT22;526;51.392;12.448;2023-04-16T03:29:43;9.40;97.30
1075;DHT22;526;51.392;12.448;2023-04-16T03:32:31;9.40;97.30
1075;DHT22;526;51.392;12.448;2023-04-16T03:35:04;9.40;97.30
1075;DHT22;526;51.392;12.448;2023-04-16T03:37:34;9.30;97.30
1075;DHT22;526;51.392;12.448;2023-04-16T03:40:02;9.40;97.30
1075;DHT22;526;51.392;12.448;2023-04-16T03:42:33;9.40;97.30
1075;DHT22;526;51.392;12.448;2023-04-16T03:45:01;9.30;97.30
1075;DHT22;526;51.392;12.448;2023-04-16T03:47:32;9.30;97.30
1075;DHT22;526;51.392;12.448;2023-04-16T03:50:03;9.30;97.30
1075;DHT22;526;51.392;12.448;2023-04-16T03:52:29;9.30;97.30
1075;DHT22;526;51.392;12.448;2023-04-16T03:54:55;9.30;97.30
1075;DHT22;526;51.392;12.448;2023-04-16T03:57:20;9.30;97.30
1075;DHT22;526;51.392;12.448;2023-04-16T03:59:46;9.30;97.30
1075;DHT22;526;51.392;12.448;2023-04-16T04:02:11;9.20;97.30
1075;DHT22;526;51.392;12.448;2023-04-16T04:04:37;9.20;97.30
1075;DHT22;526;51.392;12.448;2023-04-16T04:07:02;9.20;97.30
1075;DHT22;526;51.392;12.448;2023-04-16T04:09:28;9.20;97.30
1075;DHT22;526;51.392;12.448;2023-04-16T04:11:53;9.20;97.30
1075;DHT22;526;51.392;12.448;2023-04-16T04:14:19;9.20;97.30
1075;DHT22;526;51.392;12.448;2023-04-16T04:16:44;9.20;97.30
1075;DHT22;526;51.392;12.448;2023-04-16T04:19:10;9.20;97.30
1075;DHT22;526;51.392;12.448;2023-04-16T04:21:35;9.20;97.30
1075;DHT22;526;51.392;12.448;2023-04-16T04:24:01;9.20;97.30
1075;DHT22;526;51.392;12.448;2023-04-16T04:26:26;9.20;97.30
1075;DHT22;526;51.392;12.448;2023-04-16T04:28:51;9.20;97.30
1075;DHT22;526;51.392;12.448;2023-04-16T04:31:17;9.20;97.30
1075;DHT22;526;51.392;12.448;2023-04-16T04:36:55;9.20;97.30
1075;DHT22;526;51.392;12.448;2023-04-16T04:39:26;9.20;97.30
1075;DHT22;526;51.392;12.448;2023-04-16T04:42:04;9.20;97.30
1075;DHT22;526;51.392;12.448;2023-04-16T04:44:53;9.20;97.30
1075;DHT22;526;51.392;12.448;2023-04-16T04:47:24;9.20;97.30
1075;DHT22;526;51.392;12.448;2023-04-16T04:49:53;9.20;97.30
1075;DHT22;526;51.392;12.448;2023-04-16T04:52:42;9.30;97.30
1075;DHT22;526;51.392;12.448;2023-04-16T04:55:39;9.30;97.30
1075;DHT22;526;51.392;12.448;2023-04-16T04:58:11;9.30;97.30
1075;DHT22;526;51.392;12.448;2023-04-16T05:00:50;9.30;97.30
1075;DHT22;526;51.392;12.448;2023-04-16T05:03:19;9.30;97.30
1075;DHT22;526;51.392;12.448;2023-04-16T05:05:45;9.40;97.30
1075;DHT22;526;51.392;12.448;2023-04-16T05:08:11;9.40;97.30
1075;DHT22;526;51.392;12.448;2023-04-16T05:10:37;9.40;97.30
1075;DHT22;526;51.392;12.448;2023-04-16T05:13:05;9.40;97.30
1075;DHT22;526;51.392;12.448;2023-04-16T05:15:31;9.40;97.30
1075;DHT22;526;51.392;12.448;2023-04-16T05:17:56;9.40;97.30
1075;DHT22;526;51.392;12.448;2023-04-16T05:20:22;9.40;97.30
1075;DHT22;526;51.392;12.448;2023-04-16T05:22:50;9.40;97.30
1075;DHT22;526;51.392;12.448;2023-04-16T05:25:16;9.40;97.30
1075;DHT22;526;51.392;12.448;2023-04-16T05:27:42;9.40;97.30
1075;DHT22;526;51.392;12.448;2023-04-16T05:30:08;9.40;97.30
1075;DHT22;526;51.392;12.448;2023-04-16T05:32:34;9.40;97.30
1075;DHT22;526;51.392;12.448;2023-04-16T05:34:59;9.50;97.30
1075;DHT22;526;51.392;12.448;2023-04-16T05:37:25;9.50;97.30
1075;DHT22;526;51.392;12.448;2023-04-16T05:39:50;9.50;97.30
1075;DHT22;526;51.392;12.448;2023-04-16T05:42:16;9.50;97.30
1075;DHT22;526;51.392;12.448;2023-04-16T05:44:41;9.50;97.30
1075;DHT22;526;51.392;12.448;2023-04-16T05:47:07;9.50;97.30
1075;DHT22;526;51.392;12.448;2023-04-16T05:49:34;9.50;97.30
1075;DHT22;526;51.392;12.448;2023-04-16T05:52:01;9.50;97.30
1075;DHT22;526;51.392;12.448;2023-04-16T05:54:26;9.50;97.30
1075;DHT22;526;51.392;12.448;2023-04-16T05:56:59;9.50;97.30
1075;DHT22;526;51.392;12.448;2023-04-16T05:59:25;9.50;97.30
1075;DHT22;526;51.392;12.448;2023-04-16T06:01:54;9.60;97.30
1075;DHT22;526;51.392;12.448;2023-04-16T06:04:23;9.60;97.30
1075;DHT22;526;51.392;12.448;2023-04-16T06:06:58;9.60;97.30
1075;DHT22;526;51.392;12.448;2023-04-16T06:09:32;9.60;97.30
1075;DHT22;526;51.392;12.448;2023-04-16T06:12:03;9.60;97.30
1075;DHT22;526;51.392;12.448;2023-04-16T06:14:40;9.60;97.30
1075;DHT22;526;51.392;12.448;2023-04-16T06:17:18;9.60;97.30
1075;DHT22;526;51.392;12.448;2023-04-16T06:23:31;9.60;97.30
1075;DHT22;526;51.392;12.448;2023-04-16T06:25:57;9.70;97.30
1075;DHT22;526;51.392;12.448;2023-04-16T06:28:22;9.70;97.30
1075;DHT22;526;51.392;12.448;2023-04-16T06:30:48;9.70;97.30
1075;DHT22;526;51.392;12.448;2023-04-16T06:33:13;9.70;97.30
1075;DHT22;526;51.392;12.448;2023-04-16T06:35:41;9.80;97.30
1075;DHT22;526;51.392;12.448;2023-04-16T06:38:09;9.80;97.30
1075;DHT22;526;51.392;12.448;2023-04-16T06:40:37;9.80;97.30
1075;DHT22;526;51.392;12.448;2023-04-16T06:43:02;9.80;97.30
1075;DHT22;526;51.392;12.448;2023-04-16T06:45:28;9.80;97.30
1075;DHT22;526;51.392;12.448;2023-04-16T06:47:53;9.80;97.30
1075;DHT22;526;51.392;12.448;2023-04-16T06:50:25;9.80;97.30
1075;DHT22;526;51.392;12.448;2023-04-16T06:52:54;9.80;97.30
1075;DHT22;526;51.392;12.448;2023-04-16T06:55:25;9.80;97.30
1075;DHT22;526;51.392;12.448;2023-04-16T07:01:15;9.80;97.30
1075;DHT22;526;51.392;12.448;2023-04-16T07:03:44;9.80;97.30
1075;DHT22;526;51.392;12.448;2023-04-16T07:06:23;9.80;97.30
1075;DHT22;526;51.392;12.448;2023-04-16T07:08:53;9.80;97.30
1075;DHT22;526;51.392;12.448;2023-04-16T07:11:22;9.70;97.30
1075;DHT22;526;51.392;12.448;2023-04-16T07:13:47;9.70;97.30
1075;DHT22;526;51.392;12.448;2023-04-16T07:16:16;9.70;97.30
1075;DHT22;526;51.392;12.448;2023-04-16T07:18:47;9.60;97.30
1075;DHT22;526;51.392;12.448;2023-04-16T07:21:12;9.60;97.30
1075;DHT22;526;51.392;12.448;2023-04-16T07:23:40;9.60;97.30
1075;DHT22;526;51.392;12.448;2023-04-16T07:26:06;9.60;97.30
1075;DHT22;526;51.392;12.448;2023-04-16T07:28:32;9.70;97.30
1075;DHT22;526;51.392;12.448;2023-04-16T07:31:01;9.70;97.30
1075;DHT22;526;51.392;12.448;2023-04-16T07:33:26;9.70;97.30
1075;DHT22;526;51.392;12.448;2023-04-16T07:36:01;9.80;97.30
1075;DHT22;526;51.392;12.448;2023-04-16T07:38:34;9.80;97.30
1075;DHT22;526;51.392;12.448;2023-04-16T07:41:02;9.80;97.30
1075;DHT22;526;51.392;12.448;2023-04-16T07:43:35;9.80;97.30
1075;DHT22;526;51.392;12.448;2023-04-16T07:46:03;9.80;97.30
1075;DHT22;526;51.392;12.448;2023-04-16T07:48:29;9.80;97.30
1075;DHT22;526;51.392;12.448;2023-04-16T07:50:54;9.90;97.30
1075;DHT22;526;51.392;12.448;2023-04-16T07:53:20;9.90;97.30
1075;DHT22;526;51.392;12.448;2023-04-16T07:55:46;9.90;97.30
1075;DHT22;526;51.392;12.448;2023-04-16T07:58:11;9.90;97.30
1075;DHT22;526;51.392;12.448;2023-04-16T08:00:44;10.00;97.30
1075;DHT22;526;51.392;12.448;2023-04-16T08:03:10;10.00;97.30
1075;DHT22;526;51.392;12.448;2023-04-16T08:05:35;10.00;97.30
1075;DHT22;526;51.392;12.448;2023-04-16T08:08:01;10.00;97.30
1075;DHT22;526;51.392;12.448;2023-04-16T08:10:27;9.90;97.30
1075;DHT22;526;51.392;12.448;2023-04-16T08:12:52;9.90;97.30
1075;DHT22;526;51.392;12.448;2023-04-16T08:15:18;9.90;97.30
1075;DHT22;526;51.392;12.448;2023-04-16T08:17:44;9.90;97.30
1075;DHT22;526;51.392;12.448;2023-04-16T08:20:10;9.90;97.30
1075;DHT22;526;51.392;12.448;2023-04-16T08:22:35;9.90;97.30
1075;DHT22;526;51.392;12.448;2023-04-16T08:25:02;10.00;97.30
1075;DHT22;526;51.392;12.448;2023-04-16T08:27:28;10.00;97.30
1075;DHT22;526;51.392;12.448;2023-04-16T08:29:53;10.00;97.30
1075;DHT22;526;51.392;12.448;2023-04-16T08:32:19;10.00;97.30
1075;DHT22;526;51.392;12.448;2023-04-16T08:34:47;10.00;97.30
1075;DHT22;526;51.392;12.448;2023-04-16T08:37:15;10.00;97.30
1075;DHT22;526;51.392;12.448;2023-04-16T08:39:41;10.10;97.30
1075;DHT22;526;51.392;12.448;2023-04-16T08:42:22;10.00;97.30
1075;DHT22;526;51.392;12.448;2023-04-16T08:44:50;10.00;97.30
1075;DHT22;526;51.392;12.448;2023-04-16T08:47:18;10.10;97.30
1075;DHT22;526;51.392;12.448;2023-04-16T08:49:44;10.00;97.30
1075;DHT22;526;51.392;12.448;2023-04-16T08:52:17;10.00;97.30
1075;DHT22;526;51.392;12.448;2023-04-16T08:54:47;10.00;97.30
1075;DHT22;526;51.392;12.448;2023-04-16T08:57:17;10.00;97.30
1075;DHT22;526;51.392;12.448;2023-04-16T08:59:45;10.00;97.30
1075;DHT22;526;51.392;12.448;2023-04-16T09:02:12;10.00;97.30
1075;DHT22;526;51.392;12.448;2023-04-16T09:04:38;10.00;97.30
1075;DHT22;526;51.392;12.448;2023-04-16T09:07:07;10.00;97.30
1075;DHT22;526;51.392;12.448;2023-04-16T09:09:32;10.00;97.30
1075;DHT22;526;51.392;12.448;2023-04-16T09:11:59;9.90;97.30
1075;DHT22;526;51.392;12.448;2023-04-16T09:14:25;9.80;97.30
1075;DHT22;526;51.392;12.448;2023-04-16T09:16:52;9.70;97.30
1075;DHT22;526;51.392;12.448;2023-04-16T09:19:19;9.60;97.30
1075;DHT22;526;51.392;12.448;2023-04-16T09:21:49;9.60;97.30
1075;DHT22;526;51.392;12.448;2023-04-16T09:24:15;9.60;97.30
1075;DHT22;526;51.392;12.448;2023-04-16T09:26:41;9.60;97.30
1075;DHT22;526;51.392;12.448;2023-04-16T09:29:09;9.60;97.30
1075;DHT22;526;51.392;12.448;2023-04-16T09:31:35;9.60;97.30
1075;DHT22;526;51.392;12.448;2023-04-16T09:36:31;9.70;97.30
1075;DHT22;526;51.392;12.448;2023-04-16T09:39:00;9.60;97.30
1075;DHT22;526;51.392;12.448;2023-04-16T09:41:28;9.70;97.30
1075;DHT22;526;51.392;12.448;2023-04-16T09:43:56;9.70;97.30
1075;DHT22;526;51.392;12.448;2023-04-16T09:46:48;9.80;97.30
1075;DHT22;526;51.392;12.448;2023-04-16T09:49:15;9.80;97.30
1075;DHT22;526;51.392;12.448;2023-04-16T09:51:47;9.80;97.30
1075;DHT22;526;51.392;12.448;2023-04-16T09:54:25;9.80;97.30
1075;DHT22;526;51.392;12.448;2023-04-16T09:56:55;9.90;97.30
1075;DHT22;526;51.392;12.448;2023-04-16T09:59:24;9.90;97.30
1075;DHT22;526;51.392;12.448;2023-04-16T10:02:06;9.90;97.30
1075;DHT22;526;51.392;12.448;2023-04-16T10:04:44;10.00;97.30
1075;DHT22;526;51.392;12.448;2023-04-16T10:07:10;10.00;97.30
1075;DHT22;526;51.392;12.448;2023-04-16T10:09:39;10.00;97.30
1075;DHT22;526;51.392;12.448;2023-04-16T10:12:05;10.00;97.30
1075;DHT22;526;51.392;12.448;2023-04-16T10:14:31;10.00;97.30
1075;DHT22;526;51.392;12.448;2023-04-16T10:16:58;10.10;97.30
1075;DHT22;526;51.392;12.448;2023-04-16T10:19:24;10.10;97.30
1075;DHT22;526;51.392;12.448;2023-04-16T10:21:50;10.10;97.30
1075;DHT22;526;51.392;12.448;2023-04-16T10:24:17;10.10;97.30
1075;DHT22;526;51.392;12.448;2023-04-16T10:26:43;10.10;97.30
1075;DHT22;526;51.392;12.448;2023-04-16T10:29:10;10.10;97.30
1075;DHT22;526;51.392;12.448;2023-04-16T10:31:37;10.10;97.30
1075;DHT22;526;51.392;12.448;2023-04-16T10:34:04;10.10;97.30
1075;DHT22;526;51.392;12.448;2023-04-16T10:36:35;10.20;97.30
1075;DHT22;526;51.392;12.448;2023-04-16T10:39:01;10.30;97.30
1075;DHT22;526;51.392;12.448;2023-04-16T10:41:26;10.30;97.30
1075;DHT22;526;51.392;12.448;2023-04-16T10:43:52;10.30;97.30
1075;DHT22;526;51.392;12.448;2023-04-16T10:46:32;10.20;97.30
1075;DHT22;526;51.392;12.448;2023-04-16T10:49:11;10.20;97.30
1075;DHT22;526;51.392;12.448;2023-04-16T10:51:37;10.20;97.30
1075;DHT22;526;51.392;12.448;2023-04-16T10:56:36;10.30;97.30
1075;DHT22;526;51.392;12.448;2023-04-16T10:59:06;10.30;97.30
1075;DHT22;526;51.392;12.448;2023-04-16T11:01:33;10.40;97.30
1075;DHT22;526;51.392;12.448;2023-04-16T11:07:06;10.40;97.30
1075;DHT22;526;51.392;12.448;2023-04-16T11:12:18;10.40;97.30
1075;DHT22;526;51.392;12.448;2023-04-16T11:14:50;10.40;97.30
1075;DHT22;526;51.392;12.448;2023-04-16T11:17:17;10.50;97.30
1075;DHT22;526;51.392;12.448;2023-04-16T11:19:42;10.50;97.30
1075;DHT22;526;51.392;12.448;2023-04-16T11:22:11;10.50;97.30
1075;DHT22;526;51.392;12.448;2023-04-16T11:24:37;10.50;97.30
1075;DHT22;526;51.392;12.448;2023-04-16T11:27:04;10.50;97.30
1075;DHT22;526;51.392;12.448;2023-04-16T11:29:30;10.60;97.30
1075;DHT22;526;51.392;12.448;2023-04-16T11:31:56;10.60;97.30
1075;DHT22;526;51.392;12.448;2023-04-16T11:34:24;10.60;97.30
1075;DHT22;526;51.392;12.448;2023-04-16T11:36:54;10.60;97.30
1075;DHT22;526;51.392;12.448;2023-04-16T11:39:23;10.60;97.30
1075;DHT22;526;51.392;12.448;2023-04-16T11:41:53;10.70;97.30
1075;DHT22;526;51.392;12.448;2023-04-16T11:44:33;10.70;97.30
1075;DHT22;526;51.392;12.448;2023-04-16T11:47:04;10.80;97.30
1075;DHT22;526;51.392;12.448;2023-04-16T11:49:34;10.80;97.30
1075;DHT22;526;51.392;12.448;2023-04-16T11:52:02;10.80;97.30
1075;DHT22;526;51.392;12.448;2023-04-16T11:54:36;10.80;97.30
1075;DHT22;526;51.392;12.448;2023-04-16T11:57:05;10.80;97.30
1075;DHT22;526;51.392;12.448;2023-04-16T11:59:33;10.80;97.30
1075;DHT22;526;51.392;12.448;2023-04-16T12:02:04;10.70;97.30
1075;DHT22;526;51.392;12.448;2023-04-16T12:04:35;10.70;97.30
1075;DHT22;526;51.392;12.448;2023-04-16T12:07:15;10.70;97.30
1075;DHT22;526;51.392;12.448;2023-04-16T12:09:44;10.80;97.30
1075;DHT22;526;51.392;12.448;2023-04-16T12:12:30;10.80;97.30
1075;DHT22;526;51.392;12.448;2023-04-16T12:15:07;10.80;97.30
1075;DHT22;526;51.392;12.448;2023-04-16T12:17:43;10.80;97.30
1075;DHT22;526;51.392;12.448;2023-04-16T12:20:15;10.80;97.30
1075;DHT22;526;51.392;12.448;2023-04-16T12:22:45;10.80;97.30
1075;DHT22;526;51.392;12.448;2023-04-16T12:25:14;10.80;97.30
1075;DHT22;526;51.392;12.448;2023-04-16T12:28:26;10.70;97.30
1075;DHT22;526;51.392;12.448;2023-04-16T12:31:05;10.70;97.30
1075;DHT22;526;51.392;12.448;2023-04-16T12:33:34;10.70;97.30
1075;DHT22;526;51.392;12.448;2023-04-16T12:36:25;10.70;97.30
1075;DHT22;526;51.392;12.448;2023-04-16T12:38:55;10.70;97.30
1075;DHT22;526;51.392;12.448;2023-04-16T12:41:26;10.70;97.30
1075;DHT22;526;51.392;12.448;2023-04-16T12:44:15;10.80;97.30
1075;DHT22;526;51.392;12.448;2023-04-16T12:46:55;10.80;97.30
1075;DHT22;526;51.392;12.448;2023-04-16T12:49:24;10.80;97.30
1075;DHT22;526;51.392;12.448;2023-04-16T12:51:52;10.70;97.30
1075;DHT22;526;51.392;12.448;2023-04-16T12:54:25;10.70;97.30
1075;DHT22;526;51.392;12.448;2023-04-16T12:56:54;10.70;97.30
1075;DHT22;526;51.392;12.448;2023-04-16T12:59:29;10.70;97.30
1075;DHT22;526;51.392;12.448;2023-04-16T13:02:05;10.70;97.30
1075;DHT22;526;51.392;12.448;2023-04-16T13:04:35;10.70;97.30
1075;DHT22;526;51.392;12.448;2023-04-16T13:07:24;10.70;97.30
1075;DHT22;526;51.392;12.448;2023-04-16T13:10:20;10.60;97.30
1075;DHT22;526;51.392;12.448;2023-04-16T13:12:51;10.60;97.30
1075;DHT22;526;51.392;12.448;2023-04-16T13:15:17;10.60;97.30
1075;DHT22;526;51.392;12.448;2023-04-16T13:17:45;10.60;97.30
1075;DHT22;526;51.392;12.448;2023-04-16T13:20:14;10.70;97.30
1075;DHT22;526;51.392;12.448;2023-04-16T13:22:53;10.70;97.30
1075;DHT22;526;51.392;12.448;2023-04-16T13:25:26;10.70;97.30
1075;DHT22;526;51.392;12.448;2023-04-16T13:28:05;10.70;97.30
1075;DHT22;526;51.392;12.448;2023-04-16T13:30:34;10.70;97.30
1075;DHT22;526;51.392;12.448;2023-04-16T13:33:22;10.80;97.30
1075;DHT22;526;51.392;12.448;2023-04-16T13:38:54;10.80;97.30
1075;DHT22;526;51.392;12.448;2023-04-16T13:41:25;10.80;97.30
1075;DHT22;526;51.392;12.448;2023-04-16T13:43:51;10.90;97.30
1075;DHT22;526;51.392;12.448;2023-04-16T13:46:16;10.90;97.30
1075;DHT22;526;51.392;12.448;2023-04-16T13:48:43;10.90;97.30
1075;DHT22;526;51.392;12.448;2023-04-16T13:51:16;10.90;97.30
1075;DHT22;526;51.392;12.448;2023-04-16T13:53:55;10.80;97.30
1075;DHT22;526;51.392;12.448;2023-04-16T13:56:24;10.80;97.30
1075;DHT22;526;51.392;12.448;2023-04-16T13:58:54;10.90;97.30
1075;DHT22;526;51.392;12.448;2023-04-16T14:04:54;10.90;97.30
1075;DHT22;526;51.392;12.448;2023-04-16T14:07:53;10.90;97.30
1075;DHT22;526;51.392;12.448;2023-04-16T14:10:24;10.80;97.30
1075;DHT22;526;51.392;12.448;2023-04-16T14:12:58;10.80;97.30
1075;DHT22;526;51.392;12.448;2023-04-16T14:18:46;10.90;97.30
1075;DHT22;526;51.392;12.448;2023-04-16T14:21:44;10.80;97.30
1075;DHT22;526;51.392;12.448;2023-04-16T14:24:43;10.80;97.30
1075;DHT22;526;51.392;12.448;2023-04-16T14:27:15;10.80;97.30
1075;DHT22;526;51.392;12.448;2023-04-16T14:29:44;10.90;97.30
1075;DHT22;526;51.392;12.448;2023-04-16T14:32:13;10.90;97.30
1075;DHT22;526;51.392;12.448;2023-04-16T14:34:39;10.90;97.30
1075;DHT22;526;51.392;12.448;2023-04-16T14:37:09;10.90;97.30
1075;DHT22;526;51.392;12.448;2023-04-16T14:39:37;10.90;97.30
1075;DHT22;526;51.392;12.448;2023-04-16T14:42:06;10.90;97.30
1075;DHT22;526;51.392;12.448;2023-04-16T14:44:35;10.80;97.30
1075;DHT22;526;51.392;12.448;2023-04-16T14:47:03;10.70;97.30
1075;DHT22;526;51.392;12.448;2023-04-16T14:49:45;10.70;97.30
1075;DHT22;526;51.392;12.448;2023-04-16T14:52:44;10.80;97.30
1075;DHT22;526;51.392;12.448;2023-04-16T14:55:16;10.80;97.30
1075;DHT22;526;51.392;12.448;2023-04-16T14:57:56;10.70;97.30
1075;DHT22;526;51.392;12.448;2023-04-16T15:03:34;10.80;97.30
1075;DHT22;526;51.392;12.448;2023-04-16T15:06:03;10.70;97.30
1075;DHT22;526;51.392;12.448;2023-04-16T15:08:31;10.80;97.30
1075;DHT22;526;51.392;12.448;2023-04-16T15:10:59;10.80;97.30
1075;DHT22;526;51.392;12.448;2023-04-16T15:13:31;10.80;97.30
1075;DHT22;526;51.392;12.448;2023-04-16T15:16:02;10.80;97.30
1075;DHT22;526;51.392;12.448;2023-04-16T15:18:31;10.80;97.30
1075;DHT22;526;51.392;12.448;2023-04-16T15:20:57;10.90;97.30
1075;DHT22;526;51.392;12.448;2023-04-16T15:23:26;10.90;97.30
1075;DHT22;526;51.392;12.448;2023-04-16T15:25:57;10.90;97.30
1075;DHT22;526;51.392;12.448;2023-04-16T15:28:55;10.90;97.30
1075;DHT22;526;51.392;12.448;2023-04-16T15:31:24;10.80;97.30
1075;DHT22;526;51.392;12.448;2023-04-16T15:34:04;10.90;97.30
1075;DHT22;526;51.392;12.448;2023-04-16T15:36:35;10.80;97.30
1075;DHT22;526;51.392;12.448;2023-04-16T15:39:05;10.90;97.30
1075;DHT22;526;51.392;12.448;2023-04-16T15:41:34;10.80;97.30
1075;DHT22;526;51.392;12.448;2023-04-16T15:44:06;10.80;97.30
1075;DHT22;526;51.392;12.448;2023-04-16T15:46:55;10.80;97.30
1075;DHT22;526;51.392;12.448;2023-04-16T15:49:24;10.90;97.30
1075;DHT22;526;51.392;12.448;2023-04-16T15:51:52;10.90;97.30
1075;DHT22;526;51.392;12.448;2023-04-16T15:54:23;10.90;97.30
1075;DHT22;526;51.392;12.448;2023-04-16T15:59:58;10.80;97.30
1075;DHT22;526;51.392;12.448;2023-04-16T16:05:34;10.80;97.30
1075;DHT22;526;51.392;12.448;2023-04-16T16:08:06;10.80;97.30
1075;DHT22;526;51.392;12.448;2023-04-16T16:10:34;10.70;97.30
1075;DHT22;526;51.392;12.448;2023-04-16T16:13:14;10.70;97.30
1075;DHT22;526;51.392;12.448;2023-04-16T16:15:45;10.70;97.30
1075;DHT22;526;51.392;12.448;2023-04-16T16:18:14;10.60;97.30
1075;DHT22;526;51.392;12.448;2023-04-16T16:21:05;10.60;97.30
1075;DHT22;526;51.392;12.448;2023-04-16T16:23:31;10.50;97.30
1075;DHT22;526;51.392;12.448;2023-04-16T16:26:04;10.50;97.30
1075;DHT22;526;51.392;12.448;2023-04-16T16:28:33;10.50;97.30
1075;DHT22;526;51.392;12.448;2023-04-16T16:31:02;10.40;97.30
1075;DHT22;526;51.392;12.448;2023-04-16T16:33:28;10.40;97.30
1075;DHT22;526;51.392;12.448;2023-04-16T16:35:53;10.40;97.30
1075;DHT22;526;51.392;12.448;2023-04-16T16:38:19;10.40;97.30
1075;DHT22;526;51.392;12.448;2023-04-16T16:40:45;10.30;97.30
1075;DHT22;526;51.392;12.448;2023-04-16T16:43:10;10.30;97.30
1075;DHT22;526;51.392;12.448;2023-04-16T16:45:44;10.30;97.30
1075;DHT22;526;51.392;12.448;2023-04-16T16:48:15;10.20;97.30
1075;DHT22;526;51.392;12.448;2023-04-16T16:50:44;10.20;97.30
1075;DHT22;526;51.392;12.448;2023-04-16T16:53:36;10.20;97.30
1075;DHT22;526;51.392;12.448;2023-04-16T16:56:04;10.20;97.30
1075;DHT22;526;51.392;12.448;2023-04-16T16:58:52;10.10;97.30
1075;DHT22;526;51.392;12.448;2023-04-16T17:01:25;10.10;97.30
1075;DHT22;526;51.392;12.448;2023-04-16T17:18:25;10.00;97.30
1075;DHT22;526;51.392;12.448;2023-04-16T17:21:24;10.00;97.30
1075;DHT22;526;51.392;12.448;2023-04-16T17:23:53;10.00;97.30
1075;DHT22;526;51.392;12.448;2023-04-16T17:26:25;10.00;97.30